Time;durP1;ratioP1;P1;durP2;ratioP2;P2;SDS_P1;SDS_P2;PMS_P1;PMS_P2;Temp;Humidity;BMP_temperature;BMP_pressure;BME280_temperature;BME280_humidity;BME280_pressure;Samples;Min_cycle;Max_cycle;Signal;HPM_P1;HPM_P2
2023/11/25 07:02:26;;;;;;;1.98;0.60;;;;;;;;;;10559934;28;20040;-83
2023/11/25 07:07:30;;;;;;;3.35;0.82;;;;;;;;;;10534121;28;20036;-85
2023/11/25 07:23:47;;;;;;;3.08;0.93;;;;;;;;;;10547290;28;20032;-85
2023/11/25 07:34:15;;;;;;;3.58;1.88;;;;;;;;;;10574928;28;19951;-86
2023/11/25 07:39:29;;;;;;;4.35;2.03;;;;;;;;;;10527029;28;20076;-86
2023/11/25 07:44:52;;;;;;;2.42;1.02;;;;;;;;;;10539403;28;20458;-85
2023/11/25 07:56:25;;;;;;;5.32;1.20;;;;;;;;;;10520484;28;20041;-85
2023/11/25 08:07:08;;;;;;;5.28;1.63;;;;;;;;;;10517606;28;20040;-84
2023/11/25 08:12:09;;;;;;;4.15;1.30;;;;;;;;;;10500253;28;20054;-83
2023/11/25 08:17:10;;;;;;;5.60;1.70;;;;;;;;;;10498912;28;20063;-81
2023/11/25 08:22:11;;;;;;;5.30;1.60;;;;;;;;;;10494668;28;20416;-81
2023/11/25 08:27:13;;;;;;;4.88;1.98;;;;;;;;;;10491264;28;20039;-80
2023/11/25 08:32:14;;;;;;;3.90;1.98;;;;;;;;;;10496848;28;20051;-80
2023/11/25 08:37:16;;;;;;;5.00;1.90;;;;;;;;;;10494081;28;20028;-80
2023/11/25 08:42:17;;;;;;;4.05;1.50;;;;;;;;;;10516611;28;20510;-81
2023/11/25 08:47:18;;;;;;;4.80;1.30;;;;;;;;;;10496945;28;20115;-80
2023/11/25 08:52:22;;;;;;;5.68;1.40;;;;;;;;;;10497165;28;20033;-81
2023/11/25 08:57:23;;;;;;;3.85;1.48;;;;;;;;;;10496463;28;20025;-80
2023/11/25 09:02:25;;;;;;;5.28;1.75;;;;;;;;;;10499081;28;20055;-81
2023/11/25 09:07:27;;;;;;;4.78;1.70;;;;;;;;;;10513465;28;20020;-81
2023/11/25 09:12:28;;;;;;;4.32;1.95;;;;;;;;;;10497326;28;20072;-81
2023/11/25 09:17:29;;;;;;;4.43;1.52;;;;;;;;;;10496820;28;20066;-81
2023/11/25 09:22:30;;;;;;;3.90;1.25;;;;;;;;;;10495881;28;20028;-83
2023/11/25 09:27:31;;;;;;;5.60;1.58;;;;;;;;;;10496720;28;20056;-81
2023/11/25 09:32:32;;;;;;;4.57;2.50;;;;;;;;;;10517955;28;20478;-80
2023/11/25 09:37:37;;;;;;;3.40;1.10;;;;;;;;;;10514112;28;20025;-82
2023/11/25 09:42:38;;;;;;;2.55;0.90;;;;;;;;;;10494173;28;20063;-80
2023/11/25 09:47:40;;;;;;;2.78;1.23;;;;;;;;;;10499266;28;20105;-81
2023/11/25 09:52:59;;;;;;;2.35;0.90;;;;;;;;;;10497622;28;20427;-82
2023/11/25 09:58:03;;;;;;;3.53;1.27;;;;;;;;;;10499414;28;20025;-83
2023/11/25 10:03:08;;;;;;;5.10;1.08;;;;;;;;;;10496129;28;20072;-82
2023/11/25 10:08:09;;;;;;;3.30;1.55;;;;;;;;;;10497062;28;20032;-82
2023/11/25 10:13:16;;;;;;;3.17;1.40;;;;;;;;;;10497045;28;20141;-82
2023/11/25 10:18:18;;;;;;;4.93;1.63;;;;;;;;;;10515292;28;20462;-82
2023/11/25 10:23:23;;;;;;;8.80;5.00;;;;;;;;;;10497834;28;20032;-82
2023/11/25 10:28:25;;;;;;;5.10;2.00;;;;;;;;;;10513392;28;20050;-80
2023/11/25 10:33:27;;;;;;;3.60;1.80;;;;;;;;;;10546815;28;20021;-80
2023/11/25 10:38:29;;;;;;;6.03;1.80;;;;;;;;;;10540560;28;20040;-82
2023/11/25 10:43:31;;;;;;;3.60;1.60;;;;;;;;;;10523135;28;20032;-83
2023/11/25 10:48:39;;;;;;;3.30;1.40;;;;;;;;;;10519522;28;20037;-81
2023/11/25 10:53:43;;;;;;;3.42;1.25;;;;;;;;;;10524416;28;20048;-80
2023/11/25 10:58:59;;;;;;;5.05;1.25;;;;;;;;;;10495139;28;20523;-79
2023/11/25 11:04:05;;;;;;;8.13;3.70;;;;;;;;;;10506363;28;20089;-79
2023/11/25 11:09:09;;;;;;;3.75;0.98;;;;;;;;;;10487415;28;20503;-80
2023/11/25 11:14:14;;;;;;;4.82;1.50;;;;;;;;;;10513019;28;20084;-83
2023/11/25 11:19:17;;;;;;;6.95;3.15;;;;;;;;;;10520416;28;20020;-80
2023/11/25 11:24:21;;;;;;;4.53;1.35;;;;;;;;;;10521260;28;20463;-80
2023/11/25 11:29:29;;;;;;;6.40;1.40;;;;;;;;;;10507324;28;20391;-79
2023/11/25 11:34:32;;;;;;;4.53;1.00;;;;;;;;;;10506456;28;20024;-81
2023/11/25 11:39:33;;;;;;;3.08;1.02;;;;;;;;;;10510454;28;20048;-81
2023/11/25 11:44:34;;;;;;;5.07;1.60;;;;;;;;;;10541136;28;20072;-81
2023/11/25 11:49:35;;;;;;;3.17;1.20;;;;;;;;;;10509575;28;20103;-82
2023/11/25 11:54:36;;;;;;;6.18;2.53;;;;;;;;;;10501050;28;20064;-80
2023/11/25 12:00:01;;;;;;;3.22;1.30;;;;;;;;;;10501181;28;20052;-81
2023/11/25 12:05:03;;;;;;;4.95;0.95;;;;;;;;;;10487175;28;20093;-79
2023/11/25 12:10:05;;;;;;;4.63;1.92;;;;;;;;;;10519128;28;20108;-80
2023/11/25 12:15:08;;;;;;;3.40;1.50;;;;;;;;;;10523886;28;20024;-80
2023/11/25 12:20:10;;;;;;;3.03;1.50;;;;;;;;;;10503394;28;20024;-80
2023/11/25 12:25:16;;;;;;;3.55;1.10;;;;;;;;;;10518804;28;20025;-81
2023/11/25 12:30:17;;;;;;;3.90;1.10;;;;;;;;;;10514135;28;20060;-78
2023/11/25 12:35:18;;;;;;;3.75;1.60;;;;;;;;;;10516266;28;20050;-79
2023/11/25 12:40:21;;;;;;;4.60;1.42;;;;;;;;;;10502300;28;20029;-80
2023/11/25 12:45:43;;;;;;;2.90;0.90;;;;;;;;;;10518235;28;20470;-80
2023/11/25 12:51:04;;;;;;;4.80;1.58;;;;;;;;;;10499942;28;20031;-83
2023/11/25 12:56:14;;;;;;;3.67;1.20;;;;;;;;;;10495961;28;20071;-82
2023/11/25 13:01:49;;;;;;;5.32;1.30;;;;;;;;;;10494473;28;20106;-88
2023/11/25 13:06:51;;;;;;;3.58;1.40;;;;;;;;;;10507968;23;20056;-82
2023/11/25 13:11:52;;;;;;;4.80;1.60;;;;;;;;;;10409038;28;20025;-81
2023/11/25 13:16:54;;;;;;;3.33;0.90;;;;;;;;;;10426150;28;20041;-81
2023/11/25 13:21:55;;;;;;;3.53;1.30;;;;;;;;;;10407001;28;20034;-81
2023/11/25 13:26:56;;;;;;;3.47;0.95;;;;;;;;;;10408482;28;20033;-82
2023/11/25 13:31:57;;;;;;;4.20;1.15;;;;;;;;;;10407781;28;20084;-80
2023/11/25 13:36:58;;;;;;;5.75;1.33;;;;;;;;;;10407438;28;20018;-80
2023/11/25 13:41:59;;;;;;;5.25;1.55;;;;;;;;;;10407197;28;20038;-80
2023/11/25 13:47:00;;;;;;;5.13;1.40;;;;;;;;;;10405765;28;20025;-80
2023/11/25 13:52:01;;;;;;;6.00;1.15;;;;;;;;;;10405186;28;20060;-80
2023/11/25 13:57:02;;;;;;;5.03;1.05;;;;;;;;;;10423608;28;20024;-80
2023/11/25 14:02:03;;;;;;;5.95;2.28;;;;;;;;;;10408567;28;20037;-80
2023/11/25 14:07:05;;;;;;;4.05;1.20;;;;;;;;;;10423560;28;20131;-80
2023/11/25 14:12:07;;;;;;;3.33;1.20;;;;;;;;;;10404651;28;20037;-81
2023/11/25 14:17:11;;;;;;;4.65;1.40;;;;;;;;;;10404205;28;20021;-80
2023/11/25 14:22:12;;;;;;;6.03;1.40;;;;;;;;;;10404295;28;20056;-80
2023/11/25 14:27:13;;;;;;;2.83;1.05;;;;;;;;;;10404527;28;20030;-80
2023/11/25 14:32:14;;;;;;;2.55;1.08;;;;;;;;;;10405245;28;20021;-79
2023/11/25 14:37:16;;;;;;;2.60;1.00;;;;;;;;;;10405427;28;20083;-80
2023/11/25 14:42:17;;;;;;;;;;;;;;;;;;10404461;28;20552;-80
2023/11/25 14:47:18;;;;;;;3.35;1.17;;;;;;;;;;10404995;28;19905;-80
2023/11/25 14:52:19;;;;;;;2.17;1.02;;;;;;;;;;10405501;28;20099;-81
2023/11/25 14:57:21;;;;;;;5.28;1.23;;;;;;;;;;10424718;28;20056;-81
2023/11/25 15:02:22;;;;;;;2.83;1.05;;;;;;;;;;10448887;28;20082;-80
2023/11/25 15:07:23;;;;;;;5.07;1.55;;;;;;;;;;10470882;28;20033;-80
2023/11/25 15:12:24;;;;;;;5.85;1.40;;;;;;;;;;10453449;28;20025;-80
2023/11/25 15:17:25;;;;;;;2.95;0.90;;;;;;;;;;10451296;28;20104;-80
2023/11/25 15:22:27;;;;;;;6.53;1.63;;;;;;;;;;10450823;28;20115;-81
2023/11/25 15:27:29;;;;;;;3.40;1.30;;;;;;;;;;10451853;28;20186;-80
2023/11/25 15:32:31;;;;;;;3.38;1.13;;;;;;;;;;10452392;28;20021;-80
2023/11/25 15:37:32;;;;;;;2.50;1.00;;;;;;;;;;10450836;28;20025;-80
2023/11/25 15:42:33;;;;;;;3.78;1.23;;;;;;;;;;10450779;28;20521;-80
2023/11/25 15:47:35;;;;;;;2.78;1.00;;;;;;;;;;10454806;28;20102;-80
2023/11/25 15:52:36;;;;;;;1.85;0.90;;;;;;;;;;10451726;28;20083;-80
2023/11/25 15:57:38;;;;;;;1.80;0.80;;;;;;;;;;10450833;28;20024;-80
2023/11/25 16:02:39;;;;;;;;;;;;;;;;;;10449452;28;20033;-80
2023/11/25 16:07:40;;;;;;;1.75;0.65;;;;;;;;;;10448910;28;19944;-80
2023/11/25 16:12:41;;;;;;;2.35;1.20;;;;;;;;;;10454455;28;20033;-80
2023/11/25 16:17:42;;;;;;;;;;;;;;;;;;10459075;28;20021;-80
2023/11/25 16:22:44;;;;;;;1.42;0.75;;;;;;;;;;10469391;28;19905;-81
2023/11/25 16:27:45;;;;;;;1.60;1.00;;;;;;;;;;10449084;28;20053;-81
2023/11/25 16:32:46;;;;;;;2.75;0.90;;;;;;;;;;10447738;28;20032;-80
2023/11/25 16:37:49;;;;;;;;;;;;;;;;;;10449353;28;20096;-80
2023/11/25 16:42:50;;;;;;;2.08;0.90;;;;;;;;;;10465979;28;20103;-80
2023/11/25 16:47:51;;;;;;;;;;;;;;;;;;10448825;28;20024;-81
2023/11/25 16:52:52;;;;;;;1.38;0.63;;;;;;;;;;10450997;28;19905;-81
2023/11/25 16:57:53;;;;;;;;;;;;;;;;;;10450705;28;20394;-81
2023/11/25 17:02:54;;;;;;;1.42;0.70;;;;;;;;;;10450155;28;19916;-80
2023/11/25 17:07:55;;;;;;;1.83;0.90;;;;;;;;;;10451515;28;20037;-81
2023/11/25 17:12:57;;;;;;;;;;;;;;;;;;10469862;28;20124;-81
2023/11/25 17:17:58;;;;;;;1.33;0.68;;;;;;;;;;10448789;28;19904;-80
2023/11/25 17:23:01;;;;;;;;;;;;;;;;;;10450215;28;20032;-80
2023/11/25 17:28:02;;;;;;;1.40;0.70;;;;;;;;;;10454254;28;19905;-79
2023/11/25 17:33:03;;;;;;;;;;;;;;;;;;10462330;28;20470;-79
2023/11/25 17:38:04;;;;;;;1.52;0.90;;;;;;;;;;10452412;28;19904;-80
2023/11/25 17:43:04;;;;;;;;;;;;;;;;;;10451402;28;20069;-80
2023/11/25 17:48:05;;;;;;;2.20;1.27;;;;;;;;;;10448745;28;19905;-80
2023/11/25 17:53:07;;;;;;;;;;;;;;;;;;10449442;28;20074;-80
2023/11/25 17:58:08;;;;;;;2.38;0.90;;;;;;;;;;10447479;28;19908;-80
2023/11/25 18:03:09;;;;;;;;;;;;;;;;;;10447508;28;20037;-80
2023/11/25 18:08:10;;;;;;;2.30;0.88;;;;;;;;;;10447468;28;20273;-80
2023/11/25 18:13:11;;;;;;;1.70;0.90;;;;;;;;;;10448250;28;20100;-80
2023/11/25 18:18:12;;;;;;;;;;;;;;;;;;10446350;28;20119;-80
2023/11/25 18:23:13;;;;;;;1.40;0.88;;;;;;;;;;10445800;28;19908;-80
2023/11/25 18:28:16;;;;;;;;;;;;;;;;;;10447694;28;20059;-80
2023/11/25 18:33:17;;;;;;;2.97;1.75;;;;;;;;;;10466175;28;19905;-81
2023/11/25 18:38:18;;;;;;;;;;;;;;;;;;10467568;28;20494;-80
2023/11/25 18:43:19;;;;;;;2.38;1.40;;;;;;;;;;10448030;28;19908;-80
2023/11/25 18:48:20;;;;;;;;;;;;;;;;;;10446221;28;20142;-79
2023/11/25 18:53:21;;;;;;;2.13;1.10;;;;;;;;;;10445630;28;19911;-80
2023/11/25 18:58:23;;;;;;;;;;;;;;;;;;10445751;28;20063;-80
2023/11/25 19:03:25;;;;;;;;;;;;;;;;;;10446570;28;19909;-80
2023/11/25 19:08:29;;;;;;;1.92;1.30;;;;;;;;;;10396174;23;20025;-85
2023/11/25 19:13:31;;;;;;;2.20;1.20;;;;;;;;;;10321221;28;20056;-85
